Terminal Aerodrome Forecast
Issued by NWS

Home | Current Version | Previous Version | Text Only | Print | Product List | Glossary On
Versions: 1 2 3 4 5 6 7 8 9 10 11 12 13 14
000
FTUS45 KRIW 251124
TAFRKS
TAF
KRKS 251124Z 2512/2612 VRB06KT P6SM SKC
     FM251900 26010KT P6SM SCT100
     FM252100 27012G22KT P6SM SCT100
      TEMPO 2522/2601 VRB20G35KT -SHRA
     FM260200 25006KT P6SM SCT100=

USA.gov is the U.S. government's official web portal to all federal, state and local government web resources and services.